To NAV CANADA Home Page Login to a new session Search on AWWS site Feedback and Comments Disclaimer Vers la page française équivalente Tips FAQ What's new on the site To the Forecasts and Observations / NOTAM section To "File a Flight Plan" website Publications and other links Update of the User's profile FIC Telephone Numbers My Weather Data Folder Route Weather Data Regional Weather Data Local Weather Data To the Forecasts and Observations / NOTAM section
Request Generated 07/05/2015 at 02:38:34 UTC . Weather information available at that time is displayed.

METAR/TAF

KINGSTON/ON    

METAR CYGK 050200Z 24006KT 15SM FEW220 19/15 A2995 RMK CI1 SLP143
DENSITY ALT 800FT=
METAR CYGK 050100Z 22003KT 15SM FEW220 19/17 A2993 RMK CI2 SLP135
DENSITY ALT 800FT=
METAR CYGK 050000Z 18003KT 15SM FEW040 SCT220 20/18 A2992 RMK CF1CI3
CF TR SLP132 DENSITY ALT 900FT=

TAF CYGK 041938Z 0420/0503 18007KT P6SM FEW030
BECMG 0501/0503 25007KT
RMK NXT FCST WILL BE ISSUED AT 051145Z=
Your time UTC time
Weather data provided by Environment Canada and NAV CANADA